Hlavní strana
METAR-TAF:

METAR-TAF

Letiště :

Letiště Franjo Tuđmana

Záhřeb, Chorvatsko

zeměpisná šířka: 45-44N, zeměpisná délka: 016-04E, výška: 106 m

Aktuální stav počasí

Zpráva byla vytvořena před 15 minutami, v 02:00 UTC
Severovýchodní vítr 6 kt
Teplota 7°C
Vlhkost vzduchu 53%
Tlak 1019 hPa
Viditelnost 10 km a více
Žádná oblačnost pod 1500 m, nevyskytují se cumulonimby.

METAR: LDZA 040200Z 05006KT CAVOK 07/M02 Q1019 NOSIG

Čas: 04:15 (02:15 UTC)

Předpověď počasí

Zpráva byla vytvořena před 2 hodinami a 50 minutami, v 23:25 UTC
Předpověď platná od 04 v 00 UTC do 05 v 00 UTC
Severovýchodní vítr 6 kt
Viditelnost 10 km a více
Žádná oblačnost pod 1500 m, nevyskytují se cumulonimby.
Změna
od 04 v 06 UTC do 04 v 08 UTC
Severovýchodní vítr 12 kt
Změna
od 04 v 20 UTC do 04 v 22 UTC
Severovýchodní vítr 7 kt

TAF: LDZA 032325Z 0400/0500 04006KT CAVOK TX18/0413Z TN04/0404Z BECMG 0406/0408 04012KT BECMG 0420/0422 04007KT

Stav a předpovědi počasí z více než 4 000 letišť (zprávy METAR a TAF).

Červené a žluté tečky na mapě představují dostupné meteorologické stanice.

Když kurzor umístíte na tečku, zobrazí se název stanice.

Pak kliknutím zobrazíte stav a předpověď počasí.

Chcete-li změnit mapu, kliknutím na zelené tlačítko se znaménkem +mapu přiblížíte, kliknutím na zelené tlačítko se znaménkem – mapu oddálíte a kliknutím na zelené šipky přejdete na sousední mapy.


METAR-TAF: